sensor_id;sensor_type;location;lat;lon;timestamp;pressure;altitude;pressure_sealevel;temperature;humidity
20860;BME280;10590;48.154;11.514;2023-03-18T00:00:30;95287.53;;;5.90;75.33
20860;BME280;10590;48.154;11.514;2023-03-18T00:05:31;95289.16;;;5.72;76.54
20860;BME280;10590;48.154;11.514;2023-03-18T00:10:35;95284.53;;;5.78;76.02
20860;BME280;10590;48.154;11.514;2023-03-18T00:15:36;95282.78;;;5.87;75.32
20860;BME280;10590;48.154;11.514;2023-03-18T00:20:38;95286.94;;;5.93;74.97
20860;BME280;10590;48.154;11.514;2023-03-18T00:25:41;95291.09;;;5.66;75.37
20860;BME280;10590;48.154;11.514;2023-03-18T00:30:43;95300.53;;;5.72;75.38
20860;BME280;10590;48.154;11.514;2023-03-18T00:35:45;95310.50;;;5.62;75.82
20860;BME280;10590;48.154;11.514;2023-03-18T00:40:50;95318.44;;;5.62;76.19
20860;BME280;10590;48.154;11.514;2023-03-18T00:46:00;95309.72;;;5.29;77.43
20860;BME280;10590;48.154;11.514;2023-03-18T00:51:03;95326.19;;;5.58;76.01
20860;BME280;10590;48.154;11.514;2023-03-18T00:56:07;95318.00;;;5.41;75.78
20860;BME280;10590;48.154;11.514;2023-03-18T01:01:09;95316.78;;;5.15;77.13
20860;BME280;10590;48.154;11.514;2023-03-18T01:06:16;95315.78;;;5.10;77.30
20860;BME280;10590;48.154;11.514;2023-03-18T01:11:19;95312.56;;;5.13;77.34
20860;BME280;10590;48.154;11.514;2023-03-18T01:16:22;95312.28;;;5.15;77.38
20860;BME280;10590;48.154;11.514;2023-03-18T01:21:23;95306.13;;;5.20;76.74
20860;BME280;10590;48.154;11.514;2023-03-18T01:26:27;95302.28;;;5.31;76.18
20860;BME280;10590;48.154;11.514;2023-03-18T01:31:28;95315.00;;;5.29;76.10
20860;BME280;10590;48.154;11.514;2023-03-18T01:36:30;95317.16;;;5.27;76.38
20860;BME280;10590;48.154;11.514;2023-03-18T01:41:33;95303.41;;;5.43;75.83
20860;BME280;10590;48.154;11.514;2023-03-18T01:46:38;95316.03;;;5.47;75.60
20860;BME280;10590;48.154;11.514;2023-03-18T01:51:42;95309.34;;;5.35;76.04
20860;BME280;10590;48.154;11.514;2023-03-18T01:56:47;95318.66;;;5.65;74.95
20860;BME280;10590;48.154;11.514;2023-03-18T02:01:52;95313.84;;;6.14;72.31
20860;BME280;10590;48.154;11.514;2023-03-18T02:06:54;95321.72;;;6.32;71.40
20860;BME280;10590;48.154;11.514;2023-03-18T02:12:00;95320.53;;;6.38;71.12
20860;BME280;10590;48.154;11.514;2023-03-18T02:17:04;95323.75;;;6.35;70.87
20860;BME280;10590;48.154;11.514;2023-03-18T02:22:14;95326.31;;;6.41;71.22
20860;BME280;10590;48.154;11.514;2023-03-18T02:27:20;95327.78;;;6.33;71.44
20860;BME280;10590;48.154;11.514;2023-03-18T02:32:24;95336.09;;;5.66;73.14
20860;BME280;10590;48.154;11.514;2023-03-18T02:37:27;95333.31;;;5.90;72.88
20860;BME280;10590;48.154;11.514;2023-03-18T02:42:31;95340.34;;;5.81;73.43
20860;BME280;10590;48.154;11.514;2023-03-18T02:47:32;95338.16;;;6.02;72.51
20860;BME280;10590;48.154;11.514;2023-03-18T02:52:34;95342.22;;;6.41;70.18
20860;BME280;10590;48.154;11.514;2023-03-18T02:57:37;95339.38;;;6.51;68.89
20860;BME280;10590;48.154;11.514;2023-03-18T03:02:38;95351.53;;;6.65;68.56
20860;BME280;10590;48.154;11.514;2023-03-18T03:07:40;95355.94;;;6.70;68.23
20860;BME280;10590;48.154;11.514;2023-03-18T03:12:43;95357.41;;;6.76;67.51
20860;BME280;10590;48.154;11.514;2023-03-18T03:17:44;95367.19;;;6.89;67.49
20860;BME280;10590;48.154;11.514;2023-03-18T03:22:47;95368.88;;;6.85;67.18
20860;BME280;10590;48.154;11.514;2023-03-18T03:27:51;95380.47;;;6.89;66.85
20860;BME280;10590;48.154;11.514;2023-03-18T03:32:52;95376.25;;;7.02;65.79
20860;BME280;10590;48.154;11.514;2023-03-18T03:37:54;95364.06;;;7.01;64.93
20860;BME280;10590;48.154;11.514;2023-03-18T03:42:57;95389.19;;;7.17;65.11
20860;BME280;10590;48.154;11.514;2023-03-18T03:47:59;95386.59;;;7.26;64.17
20860;BME280;10590;48.154;11.514;2023-03-18T03:53:00;95380.88;;;7.32;63.11
20860;BME280;10590;48.154;11.514;2023-03-18T03:58:04;95392.63;;;7.18;64.57
20860;BME280;10590;48.154;11.514;2023-03-18T04:03:06;95398.94;;;6.81;65.22
20860;BME280;10590;48.154;11.514;2023-03-18T04:08:07;95394.91;;;6.97;64.70
20860;BME280;10590;48.154;11.514;2023-03-18T04:13:10;95406.09;;;7.08;65.29
20860;BME280;10590;48.154;11.514;2023-03-18T04:18:12;95401.38;;;7.05;65.18
20860;BME280;10590;48.154;11.514;2023-03-18T04:23:14;95401.00;;;6.43;66.33
20860;BME280;10590;48.154;11.514;2023-03-18T04:28:17;95412.00;;;6.77;65.75
20860;BME280;10590;48.154;11.514;2023-03-18T04:33:18;95402.78;;;6.61;66.96
20860;BME280;10590;48.154;11.514;2023-03-18T04:38:20;95404.53;;;6.38;67.02
20860;BME280;10590;48.154;11.514;2023-03-18T04:43:23;95417.41;;;6.45;66.59
20860;BME280;10590;48.154;11.514;2023-03-18T04:48:25;95409.06;;;6.37;66.91
20860;BME280;10590;48.154;11.514;2023-03-18T04:53:26;95408.88;;;6.48;66.47
20860;BME280;10590;48.154;11.514;2023-03-18T04:58:30;95406.28;;;6.29;67.52
20860;BME280;10590;48.154;11.514;2023-03-18T05:03:31;95404.50;;;6.11;68.14
20860;BME280;10590;48.154;11.514;2023-03-18T05:08:33;95405.44;;;6.01;68.16
20860;BME280;10590;48.154;11.514;2023-03-18T05:13:37;95407.75;;;6.21;67.50
20860;BME280;10590;48.154;11.514;2023-03-18T05:18:40;95395.31;;;6.35;66.78
20860;BME280;10590;48.154;11.514;2023-03-18T05:23:42;95405.63;;;6.51;65.73
20860;BME280;10590;48.154;11.514;2023-03-18T05:28:45;95414.75;;;6.45;66.33
20860;BME280;10590;48.154;11.514;2023-03-18T05:33:48;95422.81;;;6.67;65.87
20860;BME280;10590;48.154;11.514;2023-03-18T05:38:49;95416.31;;;6.73;65.24
20860;BME280;10590;48.154;11.514;2023-03-18T05:43:52;95417.78;;;6.79;65.31
20860;BME280;10590;48.154;11.514;2023-03-18T05:48:54;95416.72;;;6.80;65.46
20860;BME280;10590;48.154;11.514;2023-03-18T05:53:56;95409.06;;;6.65;65.51
20860;BME280;10590;48.154;11.514;2023-03-18T05:58:59;95429.47;;;6.78;64.93
20860;BME280;10590;48.154;11.514;2023-03-18T06:04:01;95424.78;;;6.61;65.38
20860;BME280;10590;48.154;11.514;2023-03-18T06:09:02;95435.66;;;6.87;65.72
20860;BME280;10590;48.154;11.514;2023-03-18T06:14:07;95429.09;;;6.98;64.70
20860;BME280;10590;48.154;11.514;2023-03-18T06:19:08;95424.78;;;7.02;64.98
20860;BME280;10590;48.154;11.514;2023-03-18T06:24:11;95431.75;;;7.12;64.92
20860;BME280;10590;48.154;11.514;2023-03-18T06:29:15;95435.72;;;7.37;63.79
20860;BME280;10590;48.154;11.514;2023-03-18T06:34:17;95430.22;;;7.70;62.74
20860;BME280;10590;48.154;11.514;2023-03-18T06:39:19;95437.53;;;8.09;61.63
20860;BME280;10590;48.154;11.514;2023-03-18T06:44:23;95438.25;;;8.23;61.70
20860;BME280;10590;48.154;11.514;2023-03-18T06:49:25;95432.09;;;8.67;59.15
20860;BME280;10590;48.154;11.514;2023-03-18T06:54:26;95427.13;;;8.74;58.85
20860;BME280;10590;48.154;11.514;2023-03-18T06:59:29;95442.91;;;9.27;56.54
20860;BME280;10590;48.154;11.514;2023-03-18T07:04:31;95451.44;;;9.64;56.25
20860;BME280;10590;48.154;11.514;2023-03-18T07:09:33;95448.63;;;10.04;55.86
20860;BME280;10590;48.154;11.514;2023-03-18T07:14:36;95431.66;;;9.39;55.24
20860;BME280;10590;48.154;11.514;2023-03-18T07:19:38;95430.41;;;10.40;53.40
20860;BME280;10590;48.154;11.514;2023-03-18T07:24:41;95443.88;;;10.91;52.05
20860;BME280;10590;48.154;11.514;2023-03-18T07:29:44;95449.69;;;11.22;50.60
20860;BME280;10590;48.154;11.514;2023-03-18T07:34:46;95445.22;;;10.67;51.72
20860;BME280;10590;48.154;11.514;2023-03-18T07:39:48;95448.91;;;11.22;50.52
20860;BME280;10590;48.154;11.514;2023-03-18T07:44:51;95449.88;;;11.17;50.93
20860;BME280;10590;48.154;11.514;2023-03-18T07:49:52;95447.28;;;11.59;49.38
20860;BME280;10590;48.154;11.514;2023-03-18T07:54:54;95452.69;;;11.71;49.01
20860;BME280;10590;48.154;11.514;2023-03-18T07:59:57;95451.31;;;12.27;48.10
20860;BME280;10590;48.154;11.514;2023-03-18T08:04:58;95465.16;;;12.08;47.93
20860;BME280;10590;48.154;11.514;2023-03-18T08:10:00;95451.06;;;11.99;47.36
20860;BME280;10590;48.154;11.514;2023-03-18T08:15:04;95459.81;;;12.74;46.03
20860;BME280;10590;48.154;11.514;2023-03-18T08:20:08;95444.94;;;12.65;45.94
20860;BME280;10590;48.154;11.514;2023-03-18T08:25:09;95466.19;;;12.94;45.25
20860;BME280;10590;48.154;11.514;2023-03-18T08:30:14;95470.38;;;13.53;43.58
20860;BME280;10590;48.154;11.514;2023-03-18T08:35:16;95465.59;;;13.98;42.19
20860;BME280;10590;48.154;11.514;2023-03-18T08:40:18;95467.44;;;14.50;41.54
20860;BME280;10590;48.154;11.514;2023-03-18T08:45:21;95462.75;;;13.67;42.59
20860;BME280;10590;48.154;11.514;2023-03-18T08:50:23;95466.81;;;14.29;41.24
20860;BME280;10590;48.154;11.514;2023-03-18T08:55:29;95459.16;;;15.66;38.09
20860;BME280;10590;48.154;11.514;2023-03-18T09:00:34;95462.41;;;16.10;36.97
20860;BME280;10590;48.154;11.514;2023-03-18T09:05:36;95453.75;;;16.39;36.71
20860;BME280;10590;48.154;11.514;2023-03-18T09:10:39;95459.00;;;16.71;36.52
20860;BME280;10590;48.154;11.514;2023-03-18T09:15:43;95455.22;;;17.44;34.24
20860;BME280;10590;48.154;11.514;2023-03-18T09:20:45;95456.41;;;18.29;33.71
20860;BME280;10590;48.154;11.514;2023-03-18T09:25:46;95454.44;;;18.26;33.07
20860;BME280;10590;48.154;11.514;2023-03-18T09:30:51;95459.56;;;18.68;31.10
20860;BME280;10590;48.154;11.514;2023-03-18T09:35:53;95455.28;;;17.02;34.96
20860;BME280;10590;48.154;11.514;2023-03-18T09:41:01;95455.53;;;16.93;35.81
20860;BME280;10590;48.154;11.514;2023-03-18T09:46:10;95452.22;;;17.75;33.46
20860;BME280;10590;48.154;11.514;2023-03-18T09:51:23;95455.88;;;18.20;33.55
20860;BME280;10590;48.154;11.514;2023-03-18T09:56:31;95448.34;;;20.20;30.00
20860;BME280;10590;48.154;11.514;2023-03-18T10:01:37;95447.06;;;21.65;26.84
20860;BME280;10590;48.154;11.514;2023-03-18T10:06:40;95455.97;;;20.98;28.68
20860;BME280;10590;48.154;11.514;2023-03-18T10:11:44;95464.66;;;19.18;29.46
20860;BME280;10590;48.154;11.514;2023-03-18T10:16:55;95464.09;;;21.02;28.08
20860;BME280;10590;48.154;11.514;2023-03-18T10:22:06;95454.84;;;21.49;26.63
20860;BME280;10590;48.154;11.514;2023-03-18T10:27:17;95447.41;;;20.85;27.45
20860;BME280;10590;48.154;11.514;2023-03-18T10:32:29;95457.41;;;22.34;24.78
20860;BME280;10590;48.154;11.514;2023-03-18T10:37:41;95449.13;;;19.55;26.59
20860;BME280;10590;48.154;11.514;2023-03-18T10:42:47;95449.78;;;21.61;25.73
20860;BME280;10590;48.154;11.514;2023-03-18T10:47:59;95441.19;;;22.02;24.09
20860;BME280;10590;48.154;11.514;2023-03-18T10:53:10;95438.53;;;21.59;24.71
20860;BME280;10590;48.154;11.514;2023-03-18T10:58:16;95425.13;;;22.43;23.64
20860;BME280;10590;48.154;11.514;2023-03-18T11:03:23;95422.72;;;23.22;22.41
20860;BME280;10590;48.154;11.514;2023-03-18T11:08:29;95417.53;;;24.17;21.53
20860;BME280;10590;48.154;11.514;2023-03-18T11:13:33;95409.47;;;24.06;21.61
20860;BME280;10590;48.154;11.514;2023-03-18T11:18:36;95407.72;;;22.27;23.68
20860;BME280;10590;48.154;11.514;2023-03-18T11:23:38;95390.06;;;21.54;24.41
20860;BME280;10590;48.154;11.514;2023-03-18T11:28:48;95392.31;;;20.49;25.65
20860;BME280;10590;48.154;11.514;2023-03-18T11:33:56;95386.97;;;23.16;21.77
20860;BME280;10590;48.154;11.514;2023-03-18T11:39:01;95380.38;;;21.04;24.21
20860;BME280;10590;48.154;11.514;2023-03-18T11:44:06;95370.31;;;22.48;22.49
20860;BME280;10590;48.154;11.514;2023-03-18T11:49:12;95371.94;;;22.35;23.37
20860;BME280;10590;48.154;11.514;2023-03-18T12:00:00;95326.41;;;21.70;24.00
20860;BME280;10590;48.154;11.514;2023-03-18T12:05:26;95336.47;;;21.80;24.12
20860;BME280;10590;48.154;11.514;2023-03-18T12:10:33;95318.59;;;19.94;27.15
20860;BME280;10590;48.154;11.514;2023-03-18T12:15:45;95333.13;;;20.83;25.96
20860;BME280;10590;48.154;11.514;2023-03-18T12:20:50;95327.22;;;20.35;28.54
20860;BME280;10590;48.154;11.514;2023-03-18T12:25:59;95329.88;;;21.81;25.78
20860;BME280;10590;48.154;11.514;2023-03-18T12:31:31;95329.63;;;20.83;25.61
20860;BME280;10590;48.154;11.514;2023-03-18T12:36:45;95338.56;;;22.31;24.53
20860;BME280;10590;48.154;11.514;2023-03-18T12:42:00;95321.56;;;22.20;24.80
20860;BME280;10590;48.154;11.514;2023-03-18T12:47:06;95326.38;;;22.61;22.84
20860;BME280;10590;48.154;11.514;2023-03-18T12:52:14;95325.47;;;25.09;20.67
20860;BME280;10590;48.154;11.514;2023-03-18T12:57:25;95329.53;;;21.57;24.63
20860;BME280;10590;48.154;11.514;2023-03-18T13:02:37;95319.16;;;21.24;24.92
20860;BME280;10590;48.154;11.514;2023-03-18T13:07:47;95325.72;;;21.34;25.62
20860;BME280;10590;48.154;11.514;2023-03-18T13:12:52;95331.00;;;21.90;24.74
20860;BME280;10590;48.154;11.514;2023-03-18T13:17:58;95323.19;;;22.03;26.21
20860;BME280;10590;48.154;11.514;2023-03-18T13:23:24;95311.41;;;20.80;26.08
20860;BME280;10590;48.154;11.514;2023-03-18T13:28:41;95310.94;;;20.28;27.02
20860;BME280;10590;48.154;11.514;2023-03-18T13:34:02;95299.47;;;18.93;28.88
20860;BME280;10590;48.154;11.514;2023-03-18T13:39:26;95292.53;;;18.95;28.09
20860;BME280;10590;48.154;11.514;2023-03-18T13:44:38;95304.72;;;17.60;30.26
20860;BME280;10590;48.154;11.514;2023-03-18T13:49:43;95293.09;;;19.15;28.19
20860;BME280;10590;48.154;11.514;2023-03-18T13:54:46;95283.06;;;19.23;28.52
20860;BME280;10590;48.154;11.514;2023-03-18T13:59:48;95279.44;;;19.66;27.32
20860;BME280;10590;48.154;11.514;2023-03-18T14:04:50;95279.75;;;18.00;29.94
20860;BME280;10590;48.154;11.514;2023-03-18T14:10:10;95265.56;;;19.89;29.37
20860;BME280;10590;48.154;11.514;2023-03-18T14:15:36;95264.09;;;20.06;27.85
20860;BME280;10590;48.154;11.514;2023-03-18T14:20:40;95256.66;;;19.82;28.08
20860;BME280;10590;48.154;11.514;2023-03-18T14:25:47;95254.19;;;19.48;28.36
20860;BME280;10590;48.154;11.514;2023-03-18T14:30:56;95248.81;;;19.52;28.20
20860;BME280;10590;48.154;11.514;2023-03-18T14:36:04;95258.91;;;21.61;26.74
20860;BME280;10590;48.154;11.514;2023-03-18T14:41:16;95254.06;;;20.74;26.62
20860;BME280;10590;48.154;11.514;2023-03-18T14:46:26;95245.56;;;20.51;27.46
20860;BME280;10590;48.154;11.514;2023-03-18T14:51:30;95251.66;;;17.38;31.08
20860;BME280;10590;48.154;11.514;2023-03-18T14:56:39;95231.31;;;17.44;32.12
20860;BME280;10590;48.154;11.514;2023-03-18T15:01:44;95235.03;;;18.47;32.01
20860;BME280;10590;48.154;11.514;2023-03-18T15:06:47;95222.94;;;17.90;31.00
20860;BME280;10590;48.154;11.514;2023-03-18T15:11:50;95226.00;;;17.85;33.16
20860;BME280;10590;48.154;11.514;2023-03-18T15:16:54;95230.31;;;17.93;31.78
20860;BME280;10590;48.154;11.514;2023-03-18T15:21:59;95227.97;;;16.94;33.64
20860;BME280;10590;48.154;11.514;2023-03-18T15:27:12;95228.03;;;17.61;34.37
20860;BME280;10590;48.154;11.514;2023-03-18T15:32:16;95228.66;;;17.47;33.50
20860;BME280;10590;48.154;11.514;2023-03-18T15:37:31;95223.00;;;17.26;32.88
20860;BME280;10590;48.154;11.514;2023-03-18T15:42:35;95233.50;;;16.75;33.79
20860;BME280;10590;48.154;11.514;2023-03-18T15:47:36;95241.38;;;17.17;34.15
20860;BME280;10590;48.154;11.514;2023-03-18T15:52:40;95232.25;;;16.69;34.79
20860;BME280;10590;48.154;11.514;2023-03-18T15:57:44;95223.03;;;16.47;35.03
20860;BME280;10590;48.154;11.514;2023-03-18T16:02:45;95237.09;;;16.60;36.19
20860;BME280;10590;48.154;11.514;2023-03-18T16:07:47;95233.16;;;16.31;36.88
20860;BME280;10590;48.154;11.514;2023-03-18T16:12:53;95234.97;;;16.23;35.79
20860;BME280;10590;48.154;11.514;2023-03-18T16:17:55;95217.88;;;15.89;36.29
20860;BME280;10590;48.154;11.514;2023-03-18T16:22:57;95236.94;;;15.80;36.60
20860;BME280;10590;48.154;11.514;2023-03-18T16:28:01;95245.94;;;15.69;36.91
20860;BME280;10590;48.154;11.514;2023-03-18T16:33:04;95244.25;;;15.60;36.77
20860;BME280;10590;48.154;11.514;2023-03-18T16:38:12;95241.44;;;15.57;37.36
20860;BME280;10590;48.154;11.514;2023-03-18T16:43:18;95255.50;;;15.66;37.00
20860;BME280;10590;48.154;11.514;2023-03-18T16:48:21;95254.84;;;15.53;36.80
20860;BME280;10590;48.154;11.514;2023-03-18T16:53:24;95258.53;;;15.45;37.02
20860;BME280;10590;48.154;11.514;2023-03-18T16:58:29;95274.84;;;15.56;36.98
20860;BME280;10590;48.154;11.514;2023-03-18T17:03:32;95289.22;;;15.44;37.54
20860;BME280;10590;48.154;11.514;2023-03-18T17:08:34;95282.50;;;15.15;38.47
20860;BME280;10590;48.154;11.514;2023-03-18T17:13:38;95281.00;;;14.98;39.22
20860;BME280;10590;48.154;11.514;2023-03-18T17:18:40;95298.78;;;14.87;39.71
20860;BME280;10590;48.154;11.514;2023-03-18T17:23:41;95299.41;;;14.81;40.02
20860;BME280;10590;48.154;11.514;2023-03-18T17:28:46;95300.72;;;14.55;40.83
20860;BME280;10590;48.154;11.514;2023-03-18T17:33:49;95304.50;;;14.23;41.65
20860;BME280;10590;48.154;11.514;2023-03-18T17:38:50;95308.53;;;14.01;42.66
20860;BME280;10590;48.154;11.514;2023-03-18T17:43:59;95293.84;;;13.83;43.57
20860;BME280;10590;48.154;11.514;2023-03-18T17:49:00;95293.94;;;13.86;43.36
20860;BME280;10590;48.154;11.514;2023-03-18T17:54:03;95289.53;;;13.78;43.83
20860;BME280;10590;48.154;11.514;2023-03-18T17:59:12;95284.22;;;13.66;44.14
20860;BME280;10590;48.154;11.514;2023-03-18T18:04:16;95291.72;;;13.60;44.51
20860;BME280;10590;48.154;11.514;2023-03-18T18:09:18;95289.06;;;13.32;45.21
20860;BME280;10590;48.154;11.514;2023-03-18T18:14:23;95298.16;;;13.44;45.73
20860;BME280;10590;48.154;11.514;2023-03-18T18:19:26;95298.56;;;13.30;46.27
20860;BME280;10590;48.154;11.514;2023-03-18T18:24:29;95294.56;;;13.12;46.04
20860;BME280;10590;48.154;11.514;2023-03-18T18:29:33;95301.84;;;12.62;47.10
20860;BME280;10590;48.154;11.514;2023-03-18T18:34:35;95301.84;;;12.74;46.94
20860;BME280;10590;48.154;11.514;2023-03-18T18:39:37;95299.28;;;12.29;47.95
20860;BME280;10590;48.154;11.514;2023-03-18T18:44:40;95288.38;;;12.34;47.83
20860;BME280;10590;48.154;11.514;2023-03-18T18:49:42;95294.72;;;12.30;48.37
20860;BME280;10590;48.154;11.514;2023-03-18T18:54:47;95290.81;;;11.82;49.26
20860;BME280;10590;48.154;11.514;2023-03-18T18:59:50;95297.53;;;12.00;49.55
20860;BME280;10590;48.154;11.514;2023-03-18T19:04:52;95285.91;;;12.17;48.96
20860;BME280;10590;48.154;11.514;2023-03-18T19:09:53;95309.25;;;12.08;50.12
20860;BME280;10590;48.154;11.514;2023-03-18T19:14:57;95298.41;;;11.80;50.47
20860;BME280;10590;48.154;11.514;2023-03-18T19:19:59;95310.31;;;11.83;50.71
20860;BME280;10590;48.154;11.514;2023-03-18T19:25:00;95303.22;;;11.66;51.07
20860;BME280;10590;48.154;11.514;2023-03-18T19:30:19;95297.66;;;11.17;51.99
20860;BME280;10590;48.154;11.514;2023-03-18T19:35:21;95301.16;;;11.51;51.63
20860;BME280;10590;48.154;11.514;2023-03-18T19:40:26;95319.28;;;11.24;52.44
20860;BME280;10590;48.154;11.514;2023-03-18T19:45:30;95320.44;;;11.14;52.60
20860;BME280;10590;48.154;11.514;2023-03-18T19:50:32;95306.84;;;10.57;54.48
20860;BME280;10590;48.154;11.514;2023-03-18T19:55:33;95314.09;;;10.48;55.52
20860;BME280;10590;48.154;11.514;2023-03-18T20:00:36;95320.31;;;10.61;54.63
20860;BME280;10590;48.154;11.514;2023-03-18T20:05:38;95321.91;;;10.82;54.17
20860;BME280;10590;48.154;11.514;2023-03-18T20:10:41;95328.25;;;10.99;53.46
20860;BME280;10590;48.154;11.514;2023-03-18T20:15:44;95320.00;;;11.12;53.76
20860;BME280;10590;48.154;11.514;2023-03-18T20:20:47;95322.78;;;11.16;53.80
20860;BME280;10590;48.154;11.514;2023-03-18T20:25:50;95321.19;;;10.73;54.98
20860;BME280;10590;48.154;11.514;2023-03-18T20:30:54;95330.38;;;10.84;54.54
20860;BME280;10590;48.154;11.514;2023-03-18T20:35:56;95325.09;;;10.76;55.06
20860;BME280;10590;48.154;11.514;2023-03-18T20:40:58;95328.78;;;10.92;54.75
20860;BME280;10590;48.154;11.514;2023-03-18T20:46:01;95333.31;;;10.92;54.94
20860;BME280;10590;48.154;11.514;2023-03-18T20:51:04;95330.72;;;10.83;55.62
20860;BME280;10590;48.154;11.514;2023-03-18T20:56:10;95334.50;;;10.52;56.51
20860;BME280;10590;48.154;11.514;2023-03-18T21:01:14;95325.28;;;9.77;58.64
20860;BME280;10590;48.154;11.514;2023-03-18T21:06:16;95322.59;;;9.77;59.17
20860;BME280;10590;48.154;11.514;2023-03-18T21:11:20;95329.16;;;9.88;59.54
20860;BME280;10590;48.154;11.514;2023-03-18T21:16:23;95328.03;;;9.98;58.43
20860;BME280;10590;48.154;11.514;2023-03-18T21:21:30;95324.78;;;9.84;59.74
20860;BME280;10590;48.154;11.514;2023-03-18T21:26:33;95330.13;;;9.75;59.51
20860;BME280;10590;48.154;11.514;2023-03-18T21:31:36;95334.38;;;9.68;59.96
20860;BME280;10590;48.154;11.514;2023-03-18T21:36:40;95314.97;;;9.41;60.80
20860;BME280;10590;48.154;11.514;2023-03-18T21:41:56;95316.84;;;9.58;60.08
20860;BME280;10590;48.154;11.514;2023-03-18T21:47:14;95324.03;;;9.40;60.96
20860;BME280;10590;48.154;11.514;2023-03-18T21:52:24;95326.88;;;9.26;61.74
20860;BME280;10590;48.154;11.514;2023-03-18T21:57:28;95312.16;;;9.29;61.10
20860;BME280;10590;48.154;11.514;2023-03-18T22:02:33;95312.16;;;9.55;60.37
20860;BME280;10590;48.154;11.514;2023-03-18T22:07:36;95313.41;;;9.40;61.26
20860;BME280;10590;48.154;11.514;2023-03-18T22:12:37;95320.59;;;9.48;60.97
20860;BME280;10590;48.154;11.514;2023-03-18T22:17:40;95313.72;;;9.30;61.88
20860;BME280;10590;48.154;11.514;2023-03-18T22:22:44;95315.75;;;9.07;62.89
20860;BME280;10590;48.154;11.514;2023-03-18T22:27:46;95326.09;;;8.43;65.70
20860;BME280;10590;48.154;11.514;2023-03-18T22:32:50;95316.34;;;8.78;64.47
20860;BME280;10590;48.154;11.514;2023-03-18T22:37:52;95311.25;;;8.51;65.18
20860;BME280;10590;48.154;11.514;2023-03-18T22:42:55;95313.47;;;8.66;64.73
20860;BME280;10590;48.154;11.514;2023-03-18T22:48:00;95313.19;;;8.68;65.41
20860;BME280;10590;48.154;11.514;2023-03-18T22:53:07;95320.16;;;8.46;65.51
20860;BME280;10590;48.154;11.514;2023-03-18T22:58:18;95324.22;;;8.44;65.80
20860;BME280;10590;48.154;11.514;2023-03-18T23:03:26;95326.59;;;8.62;66.26
20860;BME280;10590;48.154;11.514;2023-03-18T23:08:29;95332.06;;;8.57;65.91
20860;BME280;10590;48.154;11.514;2023-03-18T23:13:35;95329.31;;;8.31;66.46
20860;BME280;10590;48.154;11.514;2023-03-18T23:18:39;95328.75;;;8.12;67.47
20860;BME280;10590;48.154;11.514;2023-03-18T23:23:41;95325.88;;;8.31;67.41
20860;BME280;10590;48.154;11.514;2023-03-18T23:28:42;95332.16;;;8.35;66.91
20860;BME280;10590;48.154;11.514;2023-03-18T23:33:46;95319.50;;;8.41;66.92
20860;BME280;10590;48.154;11.514;2023-03-18T23:38:47;95338.94;;;8.19;67.24
20860;BME280;10590;48.154;11.514;2023-03-18T23:43:49;95345.00;;;8.11;67.72
20860;BME280;10590;48.154;11.514;2023-03-18T23:48:52;95337.69;;;7.85;68.39
20860;BME280;10590;48.154;11.514;2023-03-18T23:53:53;95347.78;;;7.52;69.71
20860;BME280;10590;48.154;11.514;2023-03-18T23:58:55;95343.44;;;8.10;67.13
